sensor_id;sensor_type;location;lat;lon;timestamp;P1;durP1;ratioP1;P2;durP2;ratioP2
215;SDS011;45701;48.81287245;9.14186865;2022-08-19T00:01:55;23.73;;;17.73;;
215;SDS011;45701;48.81287245;9.14186865;2022-08-19T00:04:24;22.70;;;16.93;;
215;SDS011;45701;48.81287245;9.14186865;2022-08-19T00:06:53;30.70;;;18.00;;
215;SDS011;45701;48.81287245;9.14186865;2022-08-19T00:09:21;27.73;;;17.43;;
215;SDS011;45701;48.81287245;9.14186865;2022-08-19T00:11:49;26.37;;;18.50;;
215;SDS011;45701;48.81287245;9.14186865;2022-08-19T00:14:18;24.80;;;17.83;;
215;SDS011;45701;48.81287245;9.14186865;2022-08-19T00:16:48;24.33;;;17.83;;
215;SDS011;45701;48.81287245;9.14186865;2022-08-19T00:19:16;26.97;;;18.10;;
215;SDS011;45701;48.81287245;9.14186865;2022-08-19T00:21:43;25.73;;;18.30;;
215;SDS011;45701;48.81287245;9.14186865;2022-08-19T00:24:10;35.83;;;18.10;;
215;SDS011;45701;48.81287245;9.14186865;2022-08-19T00:26:39;23.90;;;17.00;;
215;SDS011;45701;48.81287245;9.14186865;2022-08-19T00:29:08;24.10;;;17.27;;
215;SDS011;45701;48.81287245;9.14186865;2022-08-19T00:31:35;26.70;;;19.00;;
215;SDS011;45701;48.81287245;9.14186865;2022-08-19T00:34:03;24.30;;;17.10;;
215;SDS011;45701;48.81287245;9.14186865;2022-08-19T00:36:30;26.30;;;17.80;;
215;SDS011;45701;48.81287245;9.14186865;2022-08-19T00:38:57;25.37;;;18.20;;
215;SDS011;45701;48.81287245;9.14186865;2022-08-19T00:41:24;27.63;;;18.27;;
215;SDS011;45701;48.81287245;9.14186865;2022-08-19T00:43:59;26.83;;;17.50;;
215;SDS011;45701;48.81287245;9.14186865;2022-08-19T00:46:26;26.90;;;18.10;;
215;SDS011;45701;48.81287245;9.14186865;2022-08-19T00:48:54;24.63;;;17.97;;
215;SDS011;45701;48.81287245;9.14186865;2022-08-19T00:51:23;24.13;;;17.73;;
215;SDS011;45701;48.81287245;9.14186865;2022-08-19T00:53:52;26.93;;;18.47;;
215;SDS011;45701;48.81287245;9.14186865;2022-08-19T00:56:20;27.27;;;18.90;;
215;SDS011;45701;48.81287245;9.14186865;2022-08-19T00:58:47;27.77;;;19.30;;
215;SDS011;45701;48.81287245;9.14186865;2022-08-19T01:01:14;27.87;;;18.17;;
215;SDS011;45701;48.81287245;9.14186865;2022-08-19T01:03:41;23.03;;;17.37;;
215;SDS011;45701;48.81287245;9.14186865;2022-08-19T01:06:07;24.20;;;17.87;;
215;SDS011;45701;48.81287245;9.14186865;2022-08-19T01:08:36;28.77;;;18.50;;
215;SDS011;45701;48.81287245;9.14186865;2022-08-19T01:11:03;27.10;;;18.83;;
215;SDS011;45701;48.81287245;9.14186865;2022-08-19T01:13:35;28.20;;;18.67;;
215;SDS011;45701;48.81287245;9.14186865;2022-08-19T01:16:03;27.53;;;18.30;;
215;SDS011;45701;48.81287245;9.14186865;2022-08-19T01:18:32;25.73;;;18.50;;
215;SDS011;45701;48.81287245;9.14186865;2022-08-19T01:21:05;26.80;;;19.53;;
215;SDS011;45701;48.81287245;9.14186865;2022-08-19T01:23:37;25.60;;;18.47;;
215;SDS011;45701;48.81287245;9.14186865;2022-08-19T01:26:10;28.47;;;19.70;;
215;SDS011;45701;48.81287245;9.14186865;2022-08-19T01:28:40;28.03;;;19.37;;
215;SDS011;45701;48.81287245;9.14186865;2022-08-19T01:31:08;26.13;;;19.20;;
215;SDS011;45701;48.81287245;9.14186865;2022-08-19T01:33:37;27.20;;;19.37;;
215;SDS011;45701;48.81287245;9.14186865;2022-08-19T01:36:05;35.10;;;20.47;;
215;SDS011;45701;48.81287245;9.14186865;2022-08-19T01:38:34;28.10;;;18.90;;
215;SDS011;45701;48.81287245;9.14186865;2022-08-19T01:41:05;27.83;;;19.10;;
215;SDS011;45701;48.81287245;9.14186865;2022-08-19T01:43:32;30.50;;;19.43;;
215;SDS011;45701;48.81287245;9.14186865;2022-08-19T01:45:59;28.87;;;19.70;;
215;SDS011;45701;48.81287245;9.14186865;2022-08-19T01:48:26;28.23;;;19.63;;
215;SDS011;45701;48.81287245;9.14186865;2022-08-19T01:50:55;28.77;;;19.77;;
215;SDS011;45701;48.81287245;9.14186865;2022-08-19T01:53:22;27.43;;;20.10;;
215;SDS011;45701;48.81287245;9.14186865;2022-08-19T01:55:50;28.10;;;19.60;;
215;SDS011;45701;48.81287245;9.14186865;2022-08-19T01:58:18;34.00;;;19.90;;
215;SDS011;45701;48.81287245;9.14186865;2022-08-19T02:00:47;29.70;;;19.73;;
215;SDS011;45701;48.81287245;9.14186865;2022-08-19T02:03:14;32.00;;;20.30;;
215;SDS011;45701;48.81287245;9.14186865;2022-08-19T02:05:41;28.73;;;20.57;;
215;SDS011;45701;48.81287245;9.14186865;2022-08-19T02:08:09;31.43;;;20.13;;
215;SDS011;45701;48.81287245;9.14186865;2022-08-19T02:10:38;35.27;;;20.80;;
215;SDS011;45701;48.81287245;9.14186865;2022-08-19T02:13:08;32.57;;;20.60;;
215;SDS011;45701;48.81287245;9.14186865;2022-08-19T02:15:35;33.00;;;21.20;;
215;SDS011;45701;48.81287245;9.14186865;2022-08-19T02:18:01;34.43;;;20.80;;
215;SDS011;45701;48.81287245;9.14186865;2022-08-19T02:20:28;30.50;;;20.33;;
215;SDS011;45701;48.81287245;9.14186865;2022-08-19T02:22:55;32.30;;;21.67;;
215;SDS011;45701;48.81287245;9.14186865;2022-08-19T02:25:21;32.23;;;21.57;;
215;SDS011;45701;48.81287245;9.14186865;2022-08-19T02:27:48;34.23;;;22.37;;
215;SDS011;45701;48.81287245;9.14186865;2022-08-19T02:30:16;33.80;;;21.93;;
215;SDS011;45701;48.81287245;9.14186865;2022-08-19T02:32:44;31.13;;;21.93;;
215;SDS011;45701;48.81287245;9.14186865;2022-08-19T02:35:11;32.97;;;22.30;;
215;SDS011;45701;48.81287245;9.14186865;2022-08-19T02:37:38;34.50;;;22.40;;
215;SDS011;45701;48.81287245;9.14186865;2022-08-19T02:40:21;33.93;;;23.20;;
215;SDS011;45701;48.81287245;9.14186865;2022-08-19T02:42:48;34.17;;;21.97;;
215;SDS011;45701;48.81287245;9.14186865;2022-08-19T02:45:17;34.33;;;23.47;;
215;SDS011;45701;48.81287245;9.14186865;2022-08-19T02:47:44;40.67;;;24.57;;
215;SDS011;45701;48.81287245;9.14186865;2022-08-19T02:50:10;37.30;;;22.80;;
215;SDS011;45701;48.81287245;9.14186865;2022-08-19T02:52:38;34.57;;;22.77;;
215;SDS011;45701;48.81287245;9.14186865;2022-08-19T02:55:05;34.87;;;23.10;;
215;SDS011;45701;48.81287245;9.14186865;2022-08-19T02:57:32;34.97;;;24.00;;
215;SDS011;45701;48.81287245;9.14186865;2022-08-19T02:59:59;33.33;;;23.83;;
215;SDS011;45701;48.81287245;9.14186865;2022-08-19T03:02:27;35.37;;;23.97;;
215;SDS011;45701;48.81287245;9.14186865;2022-08-19T03:04:55;38.63;;;24.60;;
215;SDS011;45701;48.81287245;9.14186865;2022-08-19T03:07:22;34.03;;;23.10;;
215;SDS011;45701;48.81287245;9.14186865;2022-08-19T03:09:49;36.97;;;23.63;;
215;SDS011;45701;48.81287245;9.14186865;2022-08-19T03:12:15;34.50;;;23.80;;
215;SDS011;45701;48.81287245;9.14186865;2022-08-19T03:14:42;38.30;;;25.43;;
215;SDS011;45701;48.81287245;9.14186865;2022-08-19T03:17:08;38.73;;;25.10;;
215;SDS011;45701;48.81287245;9.14186865;2022-08-19T03:19:36;37.23;;;25.30;;
215;SDS011;45701;48.81287245;9.14186865;2022-08-19T03:22:03;40.50;;;25.50;;
215;SDS011;45701;48.81287245;9.14186865;2022-08-19T03:24:30;36.60;;;24.70;;
215;SDS011;45701;48.81287245;9.14186865;2022-08-19T03:26:58;35.93;;;25.10;;
215;SDS011;45701;48.81287245;9.14186865;2022-08-19T03:29:24;38.20;;;25.97;;
215;SDS011;45701;48.81287245;9.14186865;2022-08-19T03:31:52;41.53;;;25.87;;
215;SDS011;45701;48.81287245;9.14186865;2022-08-19T03:34:20;40.30;;;26.30;;
215;SDS011;45701;48.81287245;9.14186865;2022-08-19T03:36:52;38.47;;;27.20;;
215;SDS011;45701;48.81287245;9.14186865;2022-08-19T03:39:20;50.33;;;27.10;;
215;SDS011;45701;48.81287245;9.14186865;2022-08-19T03:41:48;41.43;;;27.40;;
215;SDS011;45701;48.81287245;9.14186865;2022-08-19T03:44:18;40.17;;;27.80;;
215;SDS011;45701;48.81287245;9.14186865;2022-08-19T03:46:47;41.57;;;27.47;;
215;SDS011;45701;48.81287245;9.14186865;2022-08-19T03:49:15;41.53;;;28.00;;
215;SDS011;45701;48.81287245;9.14186865;2022-08-19T03:51:42;38.93;;;27.60;;
215;SDS011;45701;48.81287245;9.14186865;2022-08-19T03:54:11;45.87;;;28.77;;
215;SDS011;45701;48.81287245;9.14186865;2022-08-19T03:56:40;42.03;;;28.00;;
215;SDS011;45701;48.81287245;9.14186865;2022-08-19T03:59:10;43.03;;;27.87;;
215;SDS011;45701;48.81287245;9.14186865;2022-08-19T04:01:38;42.93;;;27.30;;
215;SDS011;45701;48.81287245;9.14186865;2022-08-19T04:04:06;41.10;;;27.37;;
215;SDS011;45701;48.81287245;9.14186865;2022-08-19T04:06:34;42.33;;;28.63;;
215;SDS011;45701;48.81287245;9.14186865;2022-08-19T04:09:06;43.77;;;28.93;;
215;SDS011;45701;48.81287245;9.14186865;2022-08-19T04:11:36;37.57;;;27.10;;
215;SDS011;45701;48.81287245;9.14186865;2022-08-19T04:14:08;45.73;;;29.40;;
215;SDS011;45701;48.81287245;9.14186865;2022-08-19T04:16:36;43.73;;;28.40;;
215;SDS011;45701;48.81287245;9.14186865;2022-08-19T04:19:04;40.17;;;28.63;;
215;SDS011;45701;48.81287245;9.14186865;2022-08-19T04:21:32;41.53;;;28.30;;
215;SDS011;45701;48.81287245;9.14186865;2022-08-19T04:23:59;40.47;;;28.90;;
215;SDS011;45701;48.81287245;9.14186865;2022-08-19T04:26:27;40.27;;;28.67;;
215;SDS011;45701;48.81287245;9.14186865;2022-08-19T04:28:58;43.17;;;29.70;;
215;SDS011;45701;48.81287245;9.14186865;2022-08-19T04:31:27;42.30;;;28.83;;
215;SDS011;45701;48.81287245;9.14186865;2022-08-19T04:33:56;46.13;;;29.43;;
215;SDS011;45701;48.81287245;9.14186865;2022-08-19T04:36:24;41.53;;;28.60;;
215;SDS011;45701;48.81287245;9.14186865;2022-08-19T04:38:53;47.33;;;30.13;;
215;SDS011;45701;48.81287245;9.14186865;2022-08-19T04:41:21;45.27;;;29.03;;
215;SDS011;45701;48.81287245;9.14186865;2022-08-19T04:44:18;45.40;;;30.20;;
215;SDS011;45701;48.81287245;9.14186865;2022-08-19T04:46:45;39.80;;;28.60;;
215;SDS011;45701;48.81287245;9.14186865;2022-08-19T04:49:13;42.70;;;29.80;;
215;SDS011;45701;48.81287245;9.14186865;2022-08-19T04:51:42;41.30;;;28.63;;
215;SDS011;45701;48.81287245;9.14186865;2022-08-19T04:54:10;45.83;;;30.17;;
215;SDS011;45701;48.81287245;9.14186865;2022-08-19T04:56:38;42.27;;;29.90;;
215;SDS011;45701;48.81287245;9.14186865;2022-08-19T04:59:05;42.17;;;29.00;;
215;SDS011;45701;48.81287245;9.14186865;2022-08-19T05:01:34;43.33;;;29.30;;
215;SDS011;45701;48.81287245;9.14186865;2022-08-19T05:04:02;45.90;;;28.90;;
215;SDS011;45701;48.81287245;9.14186865;2022-08-19T05:06:30;43.07;;;28.60;;
215;SDS011;45701;48.81287245;9.14186865;2022-08-19T05:08:59;41.77;;;29.00;;
215;SDS011;45701;48.81287245;9.14186865;2022-08-19T05:11:26;45.43;;;29.60;;
215;SDS011;45701;48.81287245;9.14186865;2022-08-19T05:13:55;45.73;;;30.63;;
215;SDS011;45701;48.81287245;9.14186865;2022-08-19T05:16:23;49.93;;;29.60;;
215;SDS011;45701;48.81287245;9.14186865;2022-08-19T05:18:52;41.03;;;28.63;;
215;SDS011;45701;48.81287245;9.14186865;2022-08-19T05:21:37;43.67;;;28.53;;
215;SDS011;45701;48.81287245;9.14186865;2022-08-19T05:24:23;45.53;;;30.17;;
215;SDS011;45701;48.81287245;9.14186865;2022-08-19T05:26:51;47.10;;;29.30;;
215;SDS011;45701;48.81287245;9.14186865;2022-08-19T05:29:22;43.70;;;30.07;;
215;SDS011;45701;48.81287245;9.14186865;2022-08-19T05:31:50;42.13;;;30.03;;
215;SDS011;45701;48.81287245;9.14186865;2022-08-19T05:34:19;41.70;;;29.50;;
215;SDS011;45701;48.81287245;9.14186865;2022-08-19T05:36:47;40.20;;;29.20;;
215;SDS011;45701;48.81287245;9.14186865;2022-08-19T05:39:15;42.50;;;29.93;;
215;SDS011;45701;48.81287245;9.14186865;2022-08-19T05:41:44;45.90;;;29.23;;
215;SDS011;45701;48.81287245;9.14186865;2022-08-19T05:44:12;41.27;;;29.83;;
215;SDS011;45701;48.81287245;9.14186865;2022-08-19T05:46:42;41.63;;;30.87;;
215;SDS011;45701;48.81287245;9.14186865;2022-08-19T05:49:12;48.60;;;34.20;;
215;SDS011;45701;48.81287245;9.14186865;2022-08-19T05:51:40;50.50;;;34.63;;
215;SDS011;45701;48.81287245;9.14186865;2022-08-19T05:54:08;48.30;;;30.90;;
215;SDS011;45701;48.81287245;9.14186865;2022-08-19T05:56:36;47.73;;;31.30;;
215;SDS011;45701;48.81287245;9.14186865;2022-08-19T05:59:03;48.53;;;30.10;;
215;SDS011;45701;48.81287245;9.14186865;2022-08-19T06:01:36;48.33;;;30.67;;
215;SDS011;45701;48.81287245;9.14186865;2022-08-19T06:04:04;47.97;;;31.50;;
215;SDS011;45701;48.81287245;9.14186865;2022-08-19T06:06:31;43.67;;;29.03;;
215;SDS011;45701;48.81287245;9.14186865;2022-08-19T06:09:00;41.87;;;29.00;;
215;SDS011;45701;48.81287245;9.14186865;2022-08-19T06:11:32;44.97;;;30.40;;
215;SDS011;45701;48.81287245;9.14186865;2022-08-19T06:14:00;43.70;;;28.80;;
215;SDS011;45701;48.81287245;9.14186865;2022-08-19T06:16:29;44.93;;;29.13;;
215;SDS011;45701;48.81287245;9.14186865;2022-08-19T06:18:59;41.67;;;29.83;;
215;SDS011;45701;48.81287245;9.14186865;2022-08-19T06:21:27;42.97;;;28.40;;
215;SDS011;45701;48.81287245;9.14186865;2022-08-19T06:23:55;39.87;;;28.33;;
215;SDS011;45701;48.81287245;9.14186865;2022-08-19T06:26:24;42.37;;;29.57;;
215;SDS011;45701;48.81287245;9.14186865;2022-08-19T06:28:52;40.87;;;28.07;;
215;SDS011;45701;48.81287245;9.14186865;2022-08-19T06:31:21;42.70;;;28.57;;
215;SDS011;45701;48.81287245;9.14186865;2022-08-19T06:33:49;43.40;;;28.10;;
215;SDS011;45701;48.81287245;9.14186865;2022-08-19T06:36:17;41.00;;;28.80;;
215;SDS011;45701;48.81287245;9.14186865;2022-08-19T06:38:45;43.73;;;29.20;;
215;SDS011;45701;48.81287245;9.14186865;2022-08-19T06:41:12;43.27;;;28.77;;
215;SDS011;45701;48.81287245;9.14186865;2022-08-19T06:43:40;40.30;;;28.23;;
215;SDS011;45701;48.81287245;9.14186865;2022-08-19T06:46:11;43.87;;;29.80;;
215;SDS011;45701;48.81287245;9.14186865;2022-08-19T06:48:40;41.87;;;29.40;;
215;SDS011;45701;48.81287245;9.14186865;2022-08-19T06:51:07;45.17;;;28.60;;
215;SDS011;45701;48.81287245;9.14186865;2022-08-19T06:53:34;45.23;;;30.60;;
215;SDS011;45701;48.81287245;9.14186865;2022-08-19T06:56:01;43.80;;;29.60;;
215;SDS011;45701;48.81287245;9.14186865;2022-08-19T06:58:28;49.83;;;30.70;;
215;SDS011;45701;48.81287245;9.14186865;2022-08-19T07:00:59;45.20;;;29.63;;
215;SDS011;45701;48.81287245;9.14186865;2022-08-19T07:03:28;47.00;;;30.33;;
215;SDS011;45701;48.81287245;9.14186865;2022-08-19T07:05:57;46.97;;;29.17;;
215;SDS011;45701;48.81287245;9.14186865;2022-08-19T07:08:28;42.33;;;29.97;;
215;SDS011;45701;48.81287245;9.14186865;2022-08-19T07:10:55;44.07;;;29.10;;
215;SDS011;45701;48.81287245;9.14186865;2022-08-19T07:13:21;43.47;;;29.30;;
215;SDS011;45701;48.81287245;9.14186865;2022-08-19T07:15:48;47.23;;;30.13;;
215;SDS011;45701;48.81287245;9.14186865;2022-08-19T07:18:18;44.47;;;28.83;;
215;SDS011;45701;48.81287245;9.14186865;2022-08-19T07:20:46;45.37;;;29.50;;
215;SDS011;45701;48.81287245;9.14186865;2022-08-19T07:23:13;41.30;;;29.37;;
215;SDS011;45701;48.81287245;9.14186865;2022-08-19T07:25:40;40.33;;;28.53;;
215;SDS011;45701;48.81287245;9.14186865;2022-08-19T07:28:07;42.80;;;29.27;;
215;SDS011;45701;48.81287245;9.14186865;2022-08-19T07:30:36;41.47;;;28.17;;
215;SDS011;45701;48.81287245;9.14186865;2022-08-19T07:33:03;38.80;;;27.40;;
215;SDS011;45701;48.81287245;9.14186865;2022-08-19T07:35:31;41.23;;;27.83;;
215;SDS011;45701;48.81287245;9.14186865;2022-08-19T07:37:58;42.27;;;28.10;;
215;SDS011;45701;48.81287245;9.14186865;2022-08-19T07:40:27;45.83;;;28.77;;
215;SDS011;45701;48.81287245;9.14186865;2022-08-19T07:42:55;47.33;;;27.87;;
215;SDS011;45701;48.81287245;9.14186865;2022-08-19T07:45:21;44.00;;;27.60;;
215;SDS011;45701;48.81287245;9.14186865;2022-08-19T07:47:48;44.23;;;28.20;;
215;SDS011;45701;48.81287245;9.14186865;2022-08-19T07:50:15;42.53;;;27.03;;
215;SDS011;45701;48.81287245;9.14186865;2022-08-19T07:52:45;42.33;;;26.37;;
215;SDS011;45701;48.81287245;9.14186865;2022-08-19T07:55:15;43.17;;;26.17;;
215;SDS011;45701;48.81287245;9.14186865;2022-08-19T07:57:44;40.77;;;25.40;;
215;SDS011;45701;48.81287245;9.14186865;2022-08-19T08:00:11;37.13;;;25.37;;
215;SDS011;45701;48.81287245;9.14186865;2022-08-19T08:02:38;37.37;;;26.10;;
215;SDS011;45701;48.81287245;9.14186865;2022-08-19T08:05:08;37.87;;;26.40;;
215;SDS011;45701;48.81287245;9.14186865;2022-08-19T08:07:53;36.40;;;24.83;;
215;SDS011;45701;48.81287245;9.14186865;2022-08-19T08:10:38;37.30;;;25.07;;
215;SDS011;45701;48.81287245;9.14186865;2022-08-19T08:13:05;37.33;;;24.93;;
215;SDS011;45701;48.81287245;9.14186865;2022-08-19T08:15:32;41.07;;;25.60;;
215;SDS011;45701;48.81287245;9.14186865;2022-08-19T08:17:58;36.60;;;25.80;;
215;SDS011;45701;48.81287245;9.14186865;2022-08-19T08:20:25;36.50;;;25.70;;
215;SDS011;45701;48.81287245;9.14186865;2022-08-19T08:22:52;37.23;;;25.87;;
215;SDS011;45701;48.81287245;9.14186865;2022-08-19T08:25:37;35.80;;;25.63;;
215;SDS011;45701;48.81287245;9.14186865;2022-08-19T08:28:04;33.40;;;24.47;;
215;SDS011;45701;48.81287245;9.14186865;2022-08-19T08:30:34;37.83;;;25.03;;
215;SDS011;45701;48.81287245;9.14186865;2022-08-19T08:33:02;39.20;;;25.93;;
215;SDS011;45701;48.81287245;9.14186865;2022-08-19T08:35:29;38.43;;;24.70;;
215;SDS011;45701;48.81287245;9.14186865;2022-08-19T08:37:57;35.93;;;24.63;;
215;SDS011;45701;48.81287245;9.14186865;2022-08-19T08:40:26;40.10;;;24.63;;
215;SDS011;45701;48.81287245;9.14186865;2022-08-19T08:42:56;35.53;;;24.33;;
215;SDS011;45701;48.81287245;9.14186865;2022-08-19T08:45:30;42.97;;;25.03;;
215;SDS011;45701;48.81287245;9.14186865;2022-08-19T08:48:02;43.13;;;24.53;;
215;SDS011;45701;48.81287245;9.14186865;2022-08-19T08:50:36;38.90;;;25.50;;
215;SDS011;45701;48.81287245;9.14186865;2022-08-19T08:53:17;39.90;;;25.63;;
215;SDS011;45701;48.81287245;9.14186865;2022-08-19T08:55:45;37.40;;;25.17;;
215;SDS011;45701;48.81287245;9.14186865;2022-08-19T08:58:13;40.27;;;25.43;;
215;SDS011;45701;48.81287245;9.14186865;2022-08-19T09:00:45;42.93;;;23.73;;
215;SDS011;45701;48.81287245;9.14186865;2022-08-19T09:03:16;37.10;;;23.90;;
215;SDS011;45701;48.81287245;9.14186865;2022-08-19T09:05:45;35.40;;;24.03;;
215;SDS011;45701;48.81287245;9.14186865;2022-08-19T09:08:25;38.03;;;24.63;;
215;SDS011;45701;48.81287245;9.14186865;2022-08-19T09:10:59;37.80;;;23.47;;
215;SDS011;45701;48.81287245;9.14186865;2022-08-19T09:13:31;38.47;;;23.30;;
215;SDS011;45701;48.81287245;9.14186865;2022-08-19T09:16:05;39.83;;;23.93;;
215;SDS011;45701;48.81287245;9.14186865;2022-08-19T09:18:38;45.93;;;22.80;;
215;SDS011;45701;48.81287245;9.14186865;2022-08-19T09:21:06;37.23;;;22.50;;
215;SDS011;45701;48.81287245;9.14186865;2022-08-19T09:23:35;34.57;;;23.30;;
215;SDS011;45701;48.81287245;9.14186865;2022-08-19T09:26:05;32.27;;;22.53;;
215;SDS011;45701;48.81287245;9.14186865;2022-08-19T09:28:33;34.70;;;21.63;;
215;SDS011;45701;48.81287245;9.14186865;2022-08-19T09:31:00;33.30;;;23.37;;
215;SDS011;45701;48.81287245;9.14186865;2022-08-19T09:33:26;31.00;;;22.70;;
215;SDS011;45701;48.81287245;9.14186865;2022-08-19T09:36:01;29.40;;;20.77;;
215;SDS011;45701;48.81287245;9.14186865;2022-08-19T09:38:29;30.40;;;21.50;;
215;SDS011;45701;48.81287245;9.14186865;2022-08-19T09:41:01;27.57;;;20.70;;
215;SDS011;45701;48.81287245;9.14186865;2022-08-19T09:43:29;29.60;;;19.87;;
215;SDS011;45701;48.81287245;9.14186865;2022-08-19T09:45:56;30.83;;;21.33;;
215;SDS011;45701;48.81287245;9.14186865;2022-08-19T09:48:23;32.40;;;20.10;;
215;SDS011;45701;48.81287245;9.14186865;2022-08-19T09:50:50;32.07;;;19.93;;
215;SDS011;45701;48.81287245;9.14186865;2022-08-19T09:53:17;27.60;;;19.50;;
215;SDS011;45701;48.81287245;9.14186865;2022-08-19T09:55:43;25.20;;;20.23;;
215;SDS011;45701;48.81287245;9.14186865;2022-08-19T09:58:11;28.50;;;20.70;;
215;SDS011;45701;48.81287245;9.14186865;2022-08-19T10:00:38;30.47;;;19.77;;
215;SDS011;45701;48.81287245;9.14186865;2022-08-19T10:03:05;27.43;;;19.07;;
215;SDS011;45701;48.81287245;9.14186865;2022-08-19T10:05:31;28.40;;;19.47;;
215;SDS011;45701;48.81287245;9.14186865;2022-08-19T10:08:16;31.97;;;19.60;;
215;SDS011;45701;48.81287245;9.14186865;2022-08-19T10:10:44;27.03;;;18.90;;
215;SDS011;45701;48.81287245;9.14186865;2022-08-19T10:13:14;26.40;;;19.70;;
215;SDS011;45701;48.81287245;9.14186865;2022-08-19T10:15:43;25.37;;;17.90;;
215;SDS011;45701;48.81287245;9.14186865;2022-08-19T10:18:10;28.67;;;18.00;;
215;SDS011;45701;48.81287245;9.14186865;2022-08-19T10:20:37;25.83;;;18.50;;
215;SDS011;45701;48.81287245;9.14186865;2022-08-19T10:23:04;25.80;;;19.43;;
215;SDS011;45701;48.81287245;9.14186865;2022-08-19T10:25:31;27.43;;;18.40;;
215;SDS011;45701;48.81287245;9.14186865;2022-08-19T10:28:00;26.57;;;18.43;;
215;SDS011;45701;48.81287245;9.14186865;2022-08-19T10:30:28;23.30;;;17.10;;
215;SDS011;45701;48.81287245;9.14186865;2022-08-19T10:32:54;24.43;;;17.73;;
215;SDS011;45701;48.81287245;9.14186865;2022-08-19T10:35:21;24.60;;;17.37;;
215;SDS011;45701;48.81287245;9.14186865;2022-08-19T10:37:49;22.23;;;16.80;;
215;SDS011;45701;48.81287245;9.14186865;2022-08-19T10:40:16;27.17;;;17.80;;
215;SDS011;45701;48.81287245;9.14186865;2022-08-19T10:42:43;24.03;;;17.27;;
215;SDS011;45701;48.81287245;9.14186865;2022-08-19T10:45:10;23.33;;;16.80;;
215;SDS011;45701;48.81287245;9.14186865;2022-08-19T10:47:38;26.30;;;16.47;;
215;SDS011;45701;48.81287245;9.14186865;2022-08-19T10:50:05;23.67;;;16.20;;
215;SDS011;45701;48.81287245;9.14186865;2022-08-19T10:53:03;26.40;;;15.93;;
215;SDS011;45701;48.81287245;9.14186865;2022-08-19T10:55:30;26.00;;;15.80;;
215;SDS011;45701;48.81287245;9.14186865;2022-08-19T10:58:15;20.90;;;14.97;;
215;SDS011;45701;48.81287245;9.14186865;2022-08-19T11:00:50;20.90;;;15.10;;
215;SDS011;45701;48.81287245;9.14186865;2022-08-19T11:03:19;28.97;;;15.67;;
215;SDS011;45701;48.81287245;9.14186865;2022-08-19T11:05:46;18.80;;;14.40;;
215;SDS011;45701;48.81287245;9.14186865;2022-08-19T11:08:13;20.50;;;14.73;;
215;SDS011;45701;48.81287245;9.14186865;2022-08-19T11:10:41;23.53;;;15.17;;
215;SDS011;45701;48.81287245;9.14186865;2022-08-19T11:13:07;18.73;;;13.60;;
215;SDS011;45701;48.81287245;9.14186865;2022-08-19T11:15:34;21.70;;;14.67;;
215;SDS011;45701;48.81287245;9.14186865;2022-08-19T11:18:02;25.10;;;14.13;;
215;SDS011;45701;48.81287245;9.14186865;2022-08-19T11:20:32;24.30;;;14.50;;
215;SDS011;45701;48.81287245;9.14186865;2022-08-19T11:22:58;20.40;;;14.57;;
215;SDS011;45701;48.81287245;9.14186865;2022-08-19T11:25:25;19.80;;;14.33;;
215;SDS011;45701;48.81287245;9.14186865;2022-08-19T11:27:51;20.47;;;14.00;;
215;SDS011;45701;48.81287245;9.14186865;2022-08-19T11:30:18;17.60;;;12.70;;
215;SDS011;45701;48.81287245;9.14186865;2022-08-19T11:32:45;21.27;;;13.90;;
215;SDS011;45701;48.81287245;9.14186865;2022-08-19T11:35:13;21.60;;;14.17;;
215;SDS011;45701;48.81287245;9.14186865;2022-08-19T11:37:41;19.13;;;13.03;;
215;SDS011;45701;48.81287245;9.14186865;2022-08-19T11:40:08;18.00;;;12.27;;
215;SDS011;45701;48.81287245;9.14186865;2022-08-19T11:42:35;18.27;;;13.60;;
215;SDS011;45701;48.81287245;9.14186865;2022-08-19T11:45:20;21.40;;;13.30;;
215;SDS011;45701;48.81287245;9.14186865;2022-08-19T11:47:46;21.83;;;13.67;;
215;SDS011;45701;48.81287245;9.14186865;2022-08-19T11:50:13;19.37;;;14.10;;
215;SDS011;45701;48.81287245;9.14186865;2022-08-19T11:52:41;18.70;;;12.87;;
215;SDS011;45701;48.81287245;9.14186865;2022-08-19T11:55:10;18.87;;;13.50;;
215;SDS011;45701;48.81287245;9.14186865;2022-08-19T11:57:37;22.50;;;13.90;;
215;SDS011;45701;48.81287245;9.14186865;2022-08-19T12:00:06;17.40;;;12.80;;
215;SDS011;45701;48.81287245;9.14186865;2022-08-19T12:02:33;18.70;;;12.83;;
215;SDS011;45701;48.81287245;9.14186865;2022-08-19T12:05:00;19.03;;;14.17;;
215;SDS011;45701;48.81287245;9.14186865;2022-08-19T12:07:28;18.30;;;13.30;;
215;SDS011;45701;48.81287245;9.14186865;2022-08-19T12:09:57;21.27;;;13.70;;
215;SDS011;45701;48.81287245;9.14186865;2022-08-19T12:12:23;18.90;;;13.67;;
215;SDS011;45701;48.81287245;9.14186865;2022-08-19T12:14:51;21.60;;;13.23;;
215;SDS011;45701;48.81287245;9.14186865;2022-08-19T12:17:22;18.53;;;12.70;;
215;SDS011;45701;48.81287245;9.14186865;2022-08-19T12:19:48;20.63;;;13.67;;
215;SDS011;45701;48.81287245;9.14186865;2022-08-19T12:22:15;18.80;;;13.53;;
215;SDS011;45701;48.81287245;9.14186865;2022-08-19T12:24:42;18.30;;;12.53;;
215;SDS011;45701;48.81287245;9.14186865;2022-08-19T12:27:10;16.87;;;12.80;;
215;SDS011;45701;48.81287245;9.14186865;2022-08-19T12:29:36;16.20;;;12.90;;
215;SDS011;45701;48.81287245;9.14186865;2022-08-19T12:32:03;15.80;;;12.33;;
215;SDS011;45701;48.81287245;9.14186865;2022-08-19T12:34:30;17.00;;;12.43;;
215;SDS011;45701;48.81287245;9.14186865;2022-08-19T12:36:58;15.20;;;12.67;;
215;SDS011;45701;48.81287245;9.14186865;2022-08-19T12:39:33;24.60;;;13.10;;
215;SDS011;45701;48.81287245;9.14186865;2022-08-19T12:42:01;16.23;;;11.70;;
215;SDS011;45701;48.81287245;9.14186865;2022-08-19T12:44:29;15.40;;;11.40;;
215;SDS011;45701;48.81287245;9.14186865;2022-08-19T12:46:57;15.50;;;11.13;;
215;SDS011;45701;48.81287245;9.14186865;2022-08-19T12:49:24;16.57;;;12.67;;
215;SDS011;45701;48.81287245;9.14186865;2022-08-19T12:51:51;19.80;;;12.80;;
215;SDS011;45701;48.81287245;9.14186865;2022-08-19T12:54:17;19.80;;;11.90;;
215;SDS011;45701;48.81287245;9.14186865;2022-08-19T12:56:45;14.83;;;11.40;;
215;SDS011;45701;48.81287245;9.14186865;2022-08-19T12:59:15;19.77;;;11.63;;